createdAt,value
2023-03-08T00:02:53.282Z,47.82
2023-03-08T00:07:56.890Z,48.51
2023-03-08T00:13:01.738Z,48.56
2023-03-08T00:18:05.487Z,48.04
2023-03-08T00:23:10.371Z,48.17
2023-03-08T00:28:15.222Z,48.09
2023-03-08T00:33:18.636Z,50.31
2023-03-08T00:38:22.049Z,47.86
2023-03-08T00:43:27.092Z,48.98
2023-03-08T00:48:31.523Z,48.03
2023-03-08T00:53:35.700Z,47.29
2023-03-08T00:58:41.896Z,46.92
2023-03-08T01:03:45.598Z,46.36
2023-03-08T01:08:49.142Z,47.20
2023-03-08T01:13:55.795Z,46.91
2023-03-08T01:19:00.606Z,47.11
2023-03-08T01:24:06.059Z,46.66
2023-03-08T01:29:11.101Z,45.82
2023-03-08T01:34:14.870Z,45.95
2023-03-08T01:39:18.445Z,45.38
2023-03-08T01:44:23.674Z,46.09
2023-03-08T01:49:30.137Z,45.01
2023-03-08T01:54:38.644Z,45.21
2023-03-08T01:59:44.105Z,44.52
2023-03-08T02:04:47.787Z,44.90
2023-03-08T02:09:51.683Z,45.85
2023-03-08T02:14:57.266Z,44.93
2023-03-08T02:25:15.739Z,43.59
2023-03-08T02:30:24.735Z,43.36
2023-03-08T02:35:28.450Z,43.42
2023-03-08T02:40:33.329Z,43.20
2023-03-08T02:45:36.823Z,43.25
2023-03-08T02:50:40.309Z,43.17
2023-03-08T02:55:46.210Z,43.63
2023-03-08T03:00:50.379Z,43.50
2023-03-08T03:05:54.425Z,44.08
2023-03-08T03:11:13.580Z,43.85
2023-03-08T03:16:17.964Z,45.71
2023-03-08T03:21:22.111Z,47.68
2023-03-08T03:26:27.572Z,47.91
2023-03-08T03:31:33.368Z,48.25
2023-03-08T03:36:37.704Z,47.06
2023-03-08T03:41:43.030Z,46.56
2023-03-08T03:46:49.451Z,47.20
2023-03-08T03:51:58.917Z,48.19
2023-03-08T03:57:10.937Z,49.19
2023-03-08T04:02:17.649Z,49.14
2023-03-08T04:07:28.234Z,49.22
2023-03-08T04:12:35.888Z,48.48
2023-03-08T04:17:39.484Z,47.62
2023-03-08T04:22:43.243Z,50.54
2023-03-08T04:27:56.603Z,48.55
2023-03-08T04:33:00.476Z,48.04
2023-03-08T04:38:12.125Z,48.54
2023-03-08T04:43:18.050Z,48.36
2023-03-08T04:48:21.761Z,48.37
2023-03-08T04:53:25.604Z,47.46
2023-03-08T04:58:31.348Z,47.07
2023-03-08T05:03:35.657Z,48.77
2023-03-08T05:08:39.220Z,47.77
2023-03-08T05:13:44.933Z,48.22
2023-03-08T05:18:48.830Z,47.21
2023-03-08T05:23:54.557Z,45.62
2023-03-08T05:29:03.349Z,44.98
2023-03-08T05:34:08.035Z,44.40
2023-03-08T05:39:13.559Z,44.14
2023-03-08T05:44:40.531Z,43.88
2023-03-08T05:49:46.210Z,44.06
2023-03-08T05:54:50.434Z,43.69
2023-03-08T05:59:57.743Z,43.38
2023-03-08T06:05:02.188Z,43.97
2023-03-08T06:10:07.474Z,43.92
2023-03-08T06:15:13.452Z,44.89
2023-03-08T06:20:18.029Z,46.93
2023-03-08T06:25:24.840Z,46.51
2023-03-08T06:30:30.145Z,46.98
2023-03-08T06:35:34.583Z,46.16
2023-03-08T06:40:39.686Z,44.73
2023-03-08T06:45:44.899Z,44.45
2023-03-08T06:50:49.233Z,45.83
2023-03-08T06:55:53.613Z,44.92
2023-03-08T07:01:00.003Z,44.77
2023-03-08T07:06:05.175Z,45.27
2023-03-08T07:11:09.767Z,44.80
2023-03-08T07:16:15.059Z,44.74
2023-03-08T07:21:18.757Z,44.00
2023-03-08T07:26:22.150Z,43.64
2023-03-08T07:31:29.312Z,43.14
2023-03-08T07:36:33.683Z,43.36
2023-03-08T07:41:37.172Z,42.64
2023-03-08T07:46:42.360Z,42.73
2023-03-08T07:51:45.901Z,42.15
2023-03-08T07:56:49.648Z,42.26
2023-03-08T08:01:54.648Z,42.07
2023-03-08T08:06:59.233Z,42.60
2023-03-08T08:12:02.725Z,41.78
2023-03-08T08:17:10.270Z,42.61
2023-03-08T08:22:13.798Z,42.48
2023-03-08T08:27:17.312Z,42.50
2023-03-08T08:32:22.245Z,42.33
2023-03-08T08:37:25.784Z,42.81
2023-03-08T08:42:29.453Z,42.41
2023-03-08T08:47:34.391Z,43.40
2023-03-08T08:52:37.997Z,42.73
2023-03-08T08:57:41.540Z,43.35
2023-03-08T09:02:46.843Z,41.76
2023-03-08T09:07:50.712Z,41.49
2023-03-08T09:12:54.400Z,41.01
2023-03-08T09:17:59.597Z,41.99
2023-03-08T09:23:03.123Z,40.98
2023-03-08T09:28:06.761Z,40.85
2023-03-08T09:33:11.809Z,39.89
2023-03-08T09:38:15.377Z,39.86
2023-03-08T09:43:22.636Z,39.54
2023-03-08T09:48:31.759Z,39.35
2023-03-08T09:53:54.670Z,39.29
2023-03-08T09:59:00.871Z,39.62
2023-03-08T10:04:15.949Z,39.12
2023-03-08T10:09:28.864Z,39.36
2023-03-08T10:14:34.327Z,38.52
2023-03-08T10:19:41.773Z,38.91
2023-03-08T10:24:51.877Z,38.20
2023-03-08T10:29:57.595Z,38.13
2023-03-08T10:35:07.006Z,37.15
2023-03-08T10:40:13.896Z,37.18
2023-03-08T10:45:21.964Z,37.41
2023-03-08T10:50:29.123Z,36.72
2023-03-08T10:55:41.818Z,37.27
2023-03-08T11:00:45.669Z,37.16
2023-03-08T11:05:56.822Z,37.40
2023-03-08T11:11:08.556Z,37.77
2023-03-08T11:16:43.812Z,38.26
2023-03-08T11:21:54.411Z,37.48
2023-03-08T11:27:10.465Z,37.28
2023-03-08T11:32:29.252Z,37.90
2023-03-08T11:37:38.296Z,38.13
2023-03-08T11:42:47.408Z,37.17
2023-03-08T11:48:05.242Z,36.67
2023-03-08T11:53:18.441Z,37.23
2023-03-08T11:58:27.292Z,37.55
2023-03-08T12:03:34.325Z,36.90
2023-03-08T12:08:42.787Z,39.21
2023-03-08T12:13:48.815Z,39.59
2023-03-08T12:18:56.347Z,39.49
2023-03-08T12:24:15.635Z,41.20
2023-03-08T12:29:23.963Z,40.90
2023-03-08T12:34:29.935Z,39.70
2023-03-08T12:39:36.665Z,40.31
2023-03-08T12:44:41.018Z,40.29
2023-03-08T12:49:47.024Z,40.40
2023-03-08T12:54:59.266Z,40.43
2023-03-08T13:00:06.731Z,40.59
2023-03-08T13:05:22.158Z,40.30
2023-03-08T13:10:30.969Z,40.26
2023-03-08T13:15:34.562Z,40.97
2023-03-08T13:20:58.849Z,41.28
2023-03-08T13:26:17.632Z,40.18
2023-03-08T13:31:22.319Z,41.56
2023-03-08T13:36:27.307Z,41.06
2023-03-08T13:41:39.820Z,41.45
2023-03-08T13:46:43.900Z,41.71
2023-03-08T13:51:50.292Z,43.03
2023-03-08T13:56:55.304Z,42.07
2023-03-08T14:01:58.887Z,42.20
2023-03-08T14:07:02.402Z,42.12
2023-03-08T14:12:08.465Z,42.00
2023-03-08T14:17:20.926Z,42.95
2023-03-08T14:22:38.166Z,43.61
2023-03-08T14:27:45.418Z,43.72
2023-03-08T14:33:22.021Z,43.28
2023-03-08T14:38:29.692Z,43.55
2023-03-08T14:43:34.683Z,43.50
2023-03-08T14:48:39.189Z,44.04
2023-03-08T14:53:42.956Z,45.36
2023-03-08T14:58:50.581Z,44.14
2023-03-08T15:03:54.107Z,43.32
2023-03-08T15:08:58.314Z,43.91
2023-03-08T15:14:03.335Z,43.66
2023-03-08T15:19:07.171Z,43.36
2023-03-08T15:24:17.342Z,44.63
2023-03-08T15:29:26.712Z,43.75
2023-03-08T15:34:30.361Z,43.64
2023-03-08T15:39:33.885Z,43.50
2023-03-08T15:44:38.964Z,43.71
2023-03-08T15:49:43.141Z,43.33
2023-03-08T15:54:49.858Z,43.59
2023-03-08T15:59:54.729Z,43.74
2023-03-08T16:04:58.241Z,44.66
2023-03-08T16:10:02.525Z,44.66
2023-03-08T16:15:09.626Z,44.62
2023-03-08T16:20:15.014Z,44.95
2023-03-08T16:25:19.627Z,44.93
2023-03-08T16:30:24.742Z,46.25
2023-03-08T16:35:28.203Z,45.89
2023-03-08T16:40:33.328Z,45.34
2023-03-08T16:45:38.567Z,45.62
2023-03-08T16:50:42.561Z,46.21
2023-03-08T16:55:46.512Z,47.56
2023-03-08T17:00:51.441Z,46.89
2023-03-08T17:05:54.988Z,46.72
2023-03-08T17:10:58.475Z,47.05
2023-03-08T17:16:03.480Z,46.96
2023-03-08T17:21:07.569Z,47.00
2023-03-08T17:26:12.357Z,47.42
2023-03-08T17:31:20.890Z,47.04
2023-03-08T17:36:26.845Z,46.48
2023-03-08T17:41:32.368Z,46.50
2023-03-08T17:46:37.583Z,46.42
2023-03-08T17:51:42.501Z,46.90
2023-03-08T17:56:46.492Z,46.94
2023-03-08T18:01:51.302Z,47.39
2023-03-08T18:06:54.936Z,47.29
2023-03-08T18:11:58.880Z,47.11
2023-03-08T18:17:04.176Z,47.35
2023-03-08T18:22:07.694Z,48.10
2023-03-08T18:27:11.280Z,47.66
2023-03-08T18:32:16.142Z,47.23
2023-03-08T18:37:19.676Z,47.28
2023-03-08T18:42:23.115Z,48.43
2023-03-08T18:47:27.989Z,47.73
2023-03-08T18:52:31.678Z,47.15
2023-03-08T18:57:35.177Z,47.48
2023-03-08T19:02:40.234Z,48.14
2023-03-08T19:07:43.815Z,47.59
2023-03-08T19:12:47.271Z,47.80
2023-03-08T19:17:55.250Z,48.13
2023-03-08T19:22:58.752Z,47.89
2023-03-08T19:28:02.411Z,48.18
2023-03-08T19:33:07.674Z,47.60
2023-03-08T19:38:11.396Z,48.11
2023-03-08T19:43:14.867Z,48.25
2023-03-08T19:48:19.796Z,47.90
2023-03-08T19:53:23.428Z,47.47
2023-03-08T19:58:27.791Z,47.90
2023-03-08T20:03:32.754Z,47.61
2023-03-08T20:08:38.213Z,48.23
2023-03-08T20:13:41.674Z,48.64
2023-03-08T20:18:49.105Z,47.79
2023-03-08T20:23:55.454Z,47.79
2023-03-08T20:28:59.897Z,47.94
2023-03-08T20:34:04.984Z,47.66
2023-03-08T20:39:08.629Z,47.85
2023-03-08T20:44:12.540Z,47.27
2023-03-08T20:49:17.616Z,47.50
2023-03-08T20:54:21.171Z,47.56
2023-03-08T20:59:26.798Z,47.36
2023-03-08T21:04:32.228Z,47.25
2023-03-08T21:09:35.980Z,48.28
2023-03-08T21:14:39.425Z,48.72
2023-03-08T21:19:44.358Z,48.09
2023-03-08T21:24:47.937Z,48.61
2023-03-08T21:29:51.681Z,47.94
2023-03-08T21:34:59.743Z,48.19
2023-03-08T21:40:05.415Z,47.75
2023-03-08T21:45:10.054Z,48.29
2023-03-08T21:50:14.984Z,48.63
2023-03-08T21:55:19.454Z,48.35
2023-03-08T22:00:23.128Z,48.47
2023-03-08T22:05:28.022Z,49.37
2023-03-08T22:10:31.443Z,48.23
2023-03-08T22:15:34.882Z,47.84
2023-03-08T22:20:39.911Z,48.23
2023-03-08T22:25:43.377Z,48.33
2023-03-08T22:30:46.929Z,47.81
2023-03-08T22:35:51.737Z,47.51
2023-03-08T22:40:55.178Z,48.29
2023-03-08T22:46:07.031Z,48.29
2023-03-08T22:51:12.216Z,48.78
2023-03-08T22:56:20.158Z,48.46
2023-03-08T23:01:25.624Z,48.09
2023-03-08T23:06:31.545Z,48.36
2023-03-08T23:11:36.413Z,47.47
2023-03-08T23:16:41.781Z,48.32
2023-03-08T23:21:46.908Z,48.87
2023-03-08T23:26:50.402Z,48.05
2023-03-08T23:31:53.941Z,48.13
2023-03-08T23:36:59.572Z,48.18
2023-03-08T23:42:02.996Z,48.52
2023-03-08T23:47:06.891Z,48.67
2023-03-08T23:52:11.798Z,49.15
2023-03-08T23:57:15.333Z,48.92
